sensor_id;sensor_type;location;lat;lon;timestamp;P1;durP1;ratioP1;P2;durP2;ratioP2
3006;SDS011;1513;47.650;10.720;2023-11-18T00:00:19;0.60;;;0.60;;
3006;SDS011;1513;47.650;10.720;2023-11-18T00:02:46;0.40;;;0.40;;
3006;SDS011;1513;47.650;10.720;2023-11-18T00:05:13;0.50;;;0.50;;
3006;SDS011;1513;47.650;10.720;2023-11-18T00:07:40;0.40;;;0.40;;
3006;SDS011;1513;47.650;10.720;2023-11-18T00:10:06;0.60;;;0.57;;
3006;SDS011;1513;47.650;10.720;2023-11-18T00:12:34;0.67;;;0.50;;
3006;SDS011;1513;47.650;10.720;2023-11-18T00:15:04;0.57;;;0.50;;
3006;SDS011;1513;47.650;10.720;2023-11-18T00:17:34;0.40;;;0.30;;
3006;SDS011;1513;47.650;10.720;2023-11-18T00:20:01;0.40;;;0.40;;
3006;SDS011;1513;47.650;10.720;2023-11-18T00:22:34;0.40;;;0.40;;
3006;SDS011;1513;47.650;10.720;2023-11-18T00:25:02;0.30;;;0.30;;
3006;SDS011;1513;47.650;10.720;2023-11-18T00:27:35;0.30;;;0.30;;
3006;SDS011;1513;47.650;10.720;2023-11-18T00:30:05;0.40;;;0.40;;
3006;SDS011;1513;47.650;10.720;2023-11-18T00:32:36;0.40;;;0.30;;
3006;SDS011;1513;47.650;10.720;2023-11-18T00:35:04;0.40;;;0.30;;
3006;SDS011;1513;47.650;10.720;2023-11-18T00:37:31;0.40;;;0.30;;
3006;SDS011;1513;47.650;10.720;2023-11-18T00:39:58;0.30;;;0.30;;
3006;SDS011;1513;47.650;10.720;2023-11-18T00:42:26;0.50;;;0.50;;
3006;SDS011;1513;47.650;10.720;2023-11-18T00:44:53;0.40;;;0.40;;
3006;SDS011;1513;47.650;10.720;2023-11-18T00:47:20;1.60;;;0.80;;
3006;SDS011;1513;47.650;10.720;2023-11-18T00:49:48;1.93;;;0.93;;
3006;SDS011;1513;47.650;10.720;2023-11-18T00:52:17;0.70;;;0.70;;
3006;SDS011;1513;47.650;10.720;2023-11-18T00:54:45;1.70;;;0.77;;
3006;SDS011;1513;47.650;10.720;2023-11-18T00:57:11;0.67;;;0.60;;
3006;SDS011;1513;47.650;10.720;2023-11-18T00:59:41;0.87;;;0.87;;
3006;SDS011;1513;47.650;10.720;2023-11-18T01:02:08;1.07;;;0.97;;
3006;SDS011;1513;47.650;10.720;2023-11-18T01:04:35;1.27;;;1.03;;
3006;SDS011;1513;47.650;10.720;2023-11-18T01:07:02;1.13;;;1.13;;
3006;SDS011;1513;47.650;10.720;2023-11-18T01:09:28;0.90;;;0.90;;
3006;SDS011;1513;47.650;10.720;2023-11-18T01:12:00;1.20;;;0.93;;
3006;SDS011;1513;47.650;10.720;2023-11-18T01:14:26;1.40;;;1.30;;
3006;SDS011;1513;47.650;10.720;2023-11-18T01:16:52;1.27;;;1.17;;
3006;SDS011;1513;47.650;10.720;2023-11-18T01:19:19;1.40;;;1.30;;
3006;SDS011;1513;47.650;10.720;2023-11-18T01:21:45;1.83;;;1.53;;
3006;SDS011;1513;47.650;10.720;2023-11-18T01:24:12;2.27;;;1.40;;
3006;SDS011;1513;47.650;10.720;2023-11-18T01:26:39;2.13;;;1.90;;
3006;SDS011;1513;47.650;10.720;2023-11-18T01:29:06;2.63;;;2.10;;
3006;SDS011;1513;47.650;10.720;2023-11-18T01:31:33;2.87;;;2.43;;
3006;SDS011;1513;47.650;10.720;2023-11-18T01:33:59;2.20;;;1.70;;
3006;SDS011;1513;47.650;10.720;2023-11-18T01:36:26;3.77;;;2.23;;
3006;SDS011;1513;47.650;10.720;2023-11-18T01:38:52;2.50;;;2.30;;
3006;SDS011;1513;47.650;10.720;2023-11-18T01:41:20;5.97;;;2.80;;
3006;SDS011;1513;47.650;10.720;2023-11-18T01:43:47;3.20;;;2.50;;
3006;SDS011;1513;47.650;10.720;2023-11-18T01:46:13;4.10;;;2.47;;
3006;SDS011;1513;47.650;10.720;2023-11-18T01:48:41;3.20;;;2.77;;
3006;SDS011;1513;47.650;10.720;2023-11-18T01:51:08;3.80;;;2.57;;
3006;SDS011;1513;47.650;10.720;2023-11-18T01:53:39;3.70;;;2.67;;
3006;SDS011;1513;47.650;10.720;2023-11-18T01:56:06;3.43;;;2.40;;
3006;SDS011;1513;47.650;10.720;2023-11-18T01:58:34;3.87;;;2.80;;
3006;SDS011;1513;47.650;10.720;2023-11-18T02:01:04;5.33;;;2.90;;
3006;SDS011;1513;47.650;10.720;2023-11-18T02:03:35;4.87;;;3.20;;
3006;SDS011;1513;47.650;10.720;2023-11-18T02:06:03;4.67;;;3.00;;
3006;SDS011;1513;47.650;10.720;2023-11-18T02:08:31;5.30;;;3.17;;
3006;SDS011;1513;47.650;10.720;2023-11-18T02:11:03;5.40;;;3.50;;
3006;SDS011;1513;47.650;10.720;2023-11-18T02:13:37;3.83;;;3.00;;
3006;SDS011;1513;47.650;10.720;2023-11-18T02:16:07;5.07;;;3.13;;
3006;SDS011;1513;47.650;10.720;2023-11-18T02:18:34;4.40;;;3.20;;
3006;SDS011;1513;47.650;10.720;2023-11-18T02:21:01;4.87;;;3.40;;
3006;SDS011;1513;47.650;10.720;2023-11-18T02:23:28;5.00;;;3.30;;
3006;SDS011;1513;47.650;10.720;2023-11-18T02:25:56;5.70;;;3.27;;
3006;SDS011;1513;47.650;10.720;2023-11-18T02:28:22;4.73;;;3.27;;
3006;SDS011;1513;47.650;10.720;2023-11-18T02:30:50;7.30;;;3.67;;
3006;SDS011;1513;47.650;10.720;2023-11-18T02:33:19;5.47;;;3.63;;
3006;SDS011;1513;47.650;10.720;2023-11-18T02:36:05;2.73;;;2.40;;
3006;SDS011;1513;47.650;10.720;2023-11-18T02:38:44;3.03;;;2.77;;
3006;SDS011;1513;47.650;10.720;2023-11-18T02:41:15;6.53;;;3.13;;
3006;SDS011;1513;47.650;10.720;2023-11-18T02:43:44;4.67;;;3.37;;
3006;SDS011;1513;47.650;10.720;2023-11-18T02:46:11;5.83;;;3.43;;
3006;SDS011;1513;47.650;10.720;2023-11-18T02:48:39;5.10;;;3.30;;
3006;SDS011;1513;47.650;10.720;2023-11-18T02:51:09;5.40;;;3.93;;
3006;SDS011;1513;47.650;10.720;2023-11-18T02:53:37;3.73;;;2.87;;
3006;SDS011;1513;47.650;10.720;2023-11-18T02:56:06;4.57;;;3.07;;
3006;SDS011;1513;47.650;10.720;2023-11-18T02:58:33;4.43;;;2.80;;
3006;SDS011;1513;47.650;10.720;2023-11-18T03:01:00;3.20;;;2.40;;
3006;SDS011;1513;47.650;10.720;2023-11-18T03:03:26;3.07;;;2.37;;
3006;SDS011;1513;47.650;10.720;2023-11-18T03:05:53;3.30;;;2.70;;
3006;SDS011;1513;47.650;10.720;2023-11-18T03:08:21;6.43;;;2.20;;
3006;SDS011;1513;47.650;10.720;2023-11-18T03:10:47;5.03;;;2.27;;
3006;SDS011;1513;47.650;10.720;2023-11-18T03:13:17;3.10;;;2.30;;
3006;SDS011;1513;47.650;10.720;2023-11-18T03:15:44;5.83;;;3.10;;
3006;SDS011;1513;47.650;10.720;2023-11-18T03:18:14;3.17;;;2.23;;
3006;SDS011;1513;47.650;10.720;2023-11-18T03:20:42;2.90;;;2.33;;
3006;SDS011;1513;47.650;10.720;2023-11-18T03:23:08;2.20;;;2.00;;
3006;SDS011;1513;47.650;10.720;2023-11-18T03:25:35;2.90;;;2.17;;
3006;SDS011;1513;47.650;10.720;2023-11-18T03:28:03;2.10;;;1.87;;
3006;SDS011;1513;47.650;10.720;2023-11-18T03:30:32;2.17;;;1.90;;
3006;SDS011;1513;47.650;10.720;2023-11-18T03:32:58;2.00;;;1.67;;
3006;SDS011;1513;47.650;10.720;2023-11-18T03:35:25;3.30;;;1.80;;
3006;SDS011;1513;47.650;10.720;2023-11-18T03:37:52;1.87;;;1.27;;
3006;SDS011;1513;47.650;10.720;2023-11-18T03:40:20;1.23;;;0.93;;
3006;SDS011;1513;47.650;10.720;2023-11-18T03:42:56;1.13;;;1.13;;
3006;SDS011;1513;47.650;10.720;2023-11-18T03:45:24;2.10;;;1.50;;
3006;SDS011;1513;47.650;10.720;2023-11-18T03:47:51;1.53;;;1.43;;
3006;SDS011;1513;47.650;10.720;2023-11-18T03:50:17;1.37;;;1.27;;
3006;SDS011;1513;47.650;10.720;2023-11-18T03:52:44;1.67;;;1.20;;
3006;SDS011;1513;47.650;10.720;2023-11-18T03:55:10;2.33;;;1.57;;
3006;SDS011;1513;47.650;10.720;2023-11-18T03:57:37;1.70;;;1.60;;
3006;SDS011;1513;47.650;10.720;2023-11-18T04:00:07;3.13;;;1.70;;
3006;SDS011;1513;47.650;10.720;2023-11-18T04:02:38;3.10;;;1.90;;
3006;SDS011;1513;47.650;10.720;2023-11-18T04:05:05;2.33;;;2.00;;
3006;SDS011;1513;47.650;10.720;2023-11-18T04:07:33;4.00;;;2.30;;
3006;SDS011;1513;47.650;10.720;2023-11-18T04:10:00;1.67;;;1.57;;
3006;SDS011;1513;47.650;10.720;2023-11-18T04:12:27;1.77;;;1.67;;
3006;SDS011;1513;47.650;10.720;2023-11-18T04:14:55;1.80;;;1.60;;
3006;SDS011;1513;47.650;10.720;2023-11-18T04:17:22;1.20;;;1.10;;
3006;SDS011;1513;47.650;10.720;2023-11-18T04:19:53;1.90;;;1.53;;
3006;SDS011;1513;47.650;10.720;2023-11-18T04:22:21;1.37;;;1.27;;
3006;SDS011;1513;47.650;10.720;2023-11-18T04:24:48;1.73;;;1.53;;
3006;SDS011;1513;47.650;10.720;2023-11-18T04:27:15;1.70;;;1.60;;
3006;SDS011;1513;47.650;10.720;2023-11-18T04:29:42;2.17;;;1.70;;
3006;SDS011;1513;47.650;10.720;2023-11-18T04:32:08;1.87;;;1.77;;
3006;SDS011;1513;47.650;10.720;2023-11-18T04:34:36;1.77;;;1.67;;
3006;SDS011;1513;47.650;10.720;2023-11-18T04:37:06;2.50;;;2.17;;
3006;SDS011;1513;47.650;10.720;2023-11-18T04:39:32;2.30;;;2.10;;
3006;SDS011;1513;47.650;10.720;2023-11-18T04:42:00;2.27;;;1.87;;
3006;SDS011;1513;47.650;10.720;2023-11-18T04:44:27;2.53;;;2.00;;
3006;SDS011;1513;47.650;10.720;2023-11-18T04:46:53;2.17;;;2.00;;
3006;SDS011;1513;47.650;10.720;2023-11-18T04:49:20;2.47;;;1.53;;
3006;SDS011;1513;47.650;10.720;2023-11-18T04:51:46;2.67;;;2.00;;
3006;SDS011;1513;47.650;10.720;2023-11-18T04:54:13;1.67;;;1.57;;
3006;SDS011;1513;47.650;10.720;2023-11-18T04:56:40;2.40;;;1.93;;
3006;SDS011;1513;47.650;10.720;2023-11-18T04:59:07;1.93;;;1.63;;
3006;SDS011;1513;47.650;10.720;2023-11-18T05:01:34;2.30;;;2.10;;
3006;SDS011;1513;47.650;10.720;2023-11-18T05:04:02;1.77;;;1.63;;
3006;SDS011;1513;47.650;10.720;2023-11-18T05:06:29;2.10;;;1.90;;
3006;SDS011;1513;47.650;10.720;2023-11-18T05:08:56;1.57;;;1.27;;
3006;SDS011;1513;47.650;10.720;2023-11-18T05:11:22;1.00;;;1.00;;
3006;SDS011;1513;47.650;10.720;2023-11-18T05:13:49;1.40;;;1.30;;
3006;SDS011;1513;47.650;10.720;2023-11-18T05:16:15;1.40;;;1.30;;
3006;SDS011;1513;47.650;10.720;2023-11-18T05:18:43;2.93;;;2.30;;
3006;SDS011;1513;47.650;10.720;2023-11-18T05:21:09;5.13;;;2.57;;
3006;SDS011;1513;47.650;10.720;2023-11-18T05:23:36;2.70;;;2.40;;
3006;SDS011;1513;47.650;10.720;2023-11-18T05:26:03;4.47;;;3.13;;
3006;SDS011;1513;47.650;10.720;2023-11-18T05:28:31;5.80;;;3.50;;
3006;SDS011;1513;47.650;10.720;2023-11-18T05:30:58;6.43;;;3.93;;
3006;SDS011;1513;47.650;10.720;2023-11-18T05:33:27;6.63;;;4.10;;
3006;SDS011;1513;47.650;10.720;2023-11-18T05:35:54;6.40;;;4.33;;
3006;SDS011;1513;47.650;10.720;2023-11-18T05:38:24;2.47;;;2.27;;
3006;SDS011;1513;47.650;10.720;2023-11-18T05:41:02;2.70;;;2.13;;
3006;SDS011;1513;47.650;10.720;2023-11-18T05:43:35;1.90;;;1.57;;
3006;SDS011;1513;47.650;10.720;2023-11-18T05:46:02;1.70;;;1.60;;
3006;SDS011;1513;47.650;10.720;2023-11-18T05:48:49;1.50;;;1.40;;
3006;SDS011;1513;47.650;10.720;2023-11-18T05:51:20;1.87;;;1.67;;
3006;SDS011;1513;47.650;10.720;2023-11-18T05:53:48;2.40;;;1.77;;
3006;SDS011;1513;47.650;10.720;2023-11-18T05:56:16;2.17;;;1.97;;
3006;SDS011;1513;47.650;10.720;2023-11-18T05:58:43;4.30;;;2.40;;
3006;SDS011;1513;47.650;10.720;2023-11-18T06:01:10;4.13;;;2.33;;
3006;SDS011;1513;47.650;10.720;2023-11-18T06:03:38;3.50;;;2.70;;
3006;SDS011;1513;47.650;10.720;2023-11-18T06:06:06;4.87;;;3.20;;
3006;SDS011;1513;47.650;10.720;2023-11-18T06:08:36;5.07;;;2.87;;
3006;SDS011;1513;47.650;10.720;2023-11-18T06:11:07;3.40;;;2.97;;
3006;SDS011;1513;47.650;10.720;2023-11-18T06:13:40;15.10;;;6.20;;
3006;SDS011;1513;47.650;10.720;2023-11-18T06:16:21;16.77;;;7.10;;
3006;SDS011;1513;47.650;10.720;2023-11-18T06:18:52;13.63;;;5.63;;
3006;SDS011;1513;47.650;10.720;2023-11-18T06:21:21;7.80;;;3.97;;
3006;SDS011;1513;47.650;10.720;2023-11-18T06:23:54;7.10;;;3.97;;
3006;SDS011;1513;47.650;10.720;2023-11-18T06:26:21;6.73;;;4.20;;
3006;SDS011;1513;47.650;10.720;2023-11-18T06:28:48;6.63;;;3.23;;
3006;SDS011;1513;47.650;10.720;2023-11-18T06:31:15;4.00;;;2.60;;
3006;SDS011;1513;47.650;10.720;2023-11-18T06:33:42;2.87;;;2.30;;
3006;SDS011;1513;47.650;10.720;2023-11-18T06:38:40;2.70;;;1.83;;
3006;SDS011;1513;47.650;10.720;2023-11-18T06:41:07;2.83;;;2.40;;
3006;SDS011;1513;47.650;10.720;2023-11-18T06:43:42;3.60;;;3.10;;
3006;SDS011;1513;47.650;10.720;2023-11-18T06:46:21;6.70;;;3.53;;
3006;SDS011;1513;47.650;10.720;2023-11-18T06:48:50;5.93;;;3.97;;
3006;SDS011;1513;47.650;10.720;2023-11-18T06:51:22;5.00;;;3.37;;
3006;SDS011;1513;47.650;10.720;2023-11-18T06:53:53;4.73;;;3.67;;
3006;SDS011;1513;47.650;10.720;2023-11-18T06:56:20;6.07;;;3.57;;
3006;SDS011;1513;47.650;10.720;2023-11-18T06:58:48;4.50;;;3.27;;
3006;SDS011;1513;47.650;10.720;2023-11-18T07:01:15;6.70;;;3.77;;
3006;SDS011;1513;47.650;10.720;2023-11-18T07:03:42;2.83;;;2.43;;
3006;SDS011;1513;47.650;10.720;2023-11-18T07:06:09;2.00;;;1.87;;
3006;SDS011;1513;47.650;10.720;2023-11-18T07:08:36;1.70;;;1.60;;
3006;SDS011;1513;47.650;10.720;2023-11-18T07:11:04;2.30;;;1.67;;
3006;SDS011;1513;47.650;10.720;2023-11-18T07:13:32;2.83;;;2.13;;
3006;SDS011;1513;47.650;10.720;2023-11-18T07:16:01;6.00;;;3.00;;
3006;SDS011;1513;47.650;10.720;2023-11-18T07:18:31;7.30;;;3.60;;
3006;SDS011;1513;47.650;10.720;2023-11-18T07:21:01;5.37;;;3.57;;
3006;SDS011;1513;47.650;10.720;2023-11-18T07:23:30;5.70;;;3.50;;
3006;SDS011;1513;47.650;10.720;2023-11-18T07:25:57;4.87;;;3.27;;
3006;SDS011;1513;47.650;10.720;2023-11-18T07:28:27;6.90;;;2.97;;
3006;SDS011;1513;47.650;10.720;2023-11-18T07:30:53;3.43;;;2.80;;
3006;SDS011;1513;47.650;10.720;2023-11-18T07:33:20;6.80;;;3.67;;
3006;SDS011;1513;47.650;10.720;2023-11-18T07:35:48;6.47;;;3.37;;
3006;SDS011;1513;47.650;10.720;2023-11-18T07:38:15;5.43;;;2.70;;
3006;SDS011;1513;47.650;10.720;2023-11-18T07:40:45;4.30;;;2.50;;
3006;SDS011;1513;47.650;10.720;2023-11-18T07:43:13;4.13;;;2.43;;
3006;SDS011;1513;47.650;10.720;2023-11-18T07:45:40;7.90;;;2.70;;
3006;SDS011;1513;47.650;10.720;2023-11-18T07:48:12;5.30;;;2.70;;
3006;SDS011;1513;47.650;10.720;2023-11-18T07:50:43;3.70;;;2.17;;
3006;SDS011;1513;47.650;10.720;2023-11-18T07:53:10;2.70;;;2.30;;
3006;SDS011;1513;47.650;10.720;2023-11-18T07:55:37;2.53;;;2.10;;
3006;SDS011;1513;47.650;10.720;2023-11-18T07:58:06;4.10;;;2.13;;
3006;SDS011;1513;47.650;10.720;2023-11-18T08:00:42;1.80;;;1.70;;
3006;SDS011;1513;47.650;10.720;2023-11-18T08:03:12;2.30;;;2.10;;
3006;SDS011;1513;47.650;10.720;2023-11-18T08:05:39;2.60;;;1.90;;
3006;SDS011;1513;47.650;10.720;2023-11-18T08:08:06;1.40;;;1.30;;
3006;SDS011;1513;47.650;10.720;2023-11-18T08:10:34;1.80;;;1.20;;
3006;SDS011;1513;47.650;10.720;2023-11-18T08:13:04;1.83;;;1.40;;
3006;SDS011;1513;47.650;10.720;2023-11-18T08:15:32;5.03;;;1.77;;
3006;SDS011;1513;47.650;10.720;2023-11-18T08:17:59;1.70;;;1.60;;
3006;SDS011;1513;47.650;10.720;2023-11-18T08:20:26;1.10;;;1.00;;
3006;SDS011;1513;47.650;10.720;2023-11-18T08:22:52;1.43;;;0.90;;
3006;SDS011;1513;47.650;10.720;2023-11-18T08:25:20;2.60;;;0.97;;
3006;SDS011;1513;47.650;10.720;2023-11-18T08:27:47;1.30;;;0.87;;
3006;SDS011;1513;47.650;10.720;2023-11-18T08:30:13;3.03;;;1.20;;
3006;SDS011;1513;47.650;10.720;2023-11-18T08:32:43;1.17;;;1.00;;
3006;SDS011;1513;47.650;10.720;2023-11-18T08:35:10;4.20;;;1.00;;
3006;SDS011;1513;47.650;10.720;2023-11-18T08:37:39;0.90;;;0.83;;
3006;SDS011;1513;47.650;10.720;2023-11-18T08:40:06;1.93;;;1.00;;
3006;SDS011;1513;47.650;10.720;2023-11-18T08:42:46;0.83;;;0.83;;
3006;SDS011;1513;47.650;10.720;2023-11-18T08:45:18;0.90;;;0.90;;
3006;SDS011;1513;47.650;10.720;2023-11-18T08:47:53;1.30;;;1.20;;
3006;SDS011;1513;47.650;10.720;2023-11-18T08:50:20;1.93;;;1.03;;
3006;SDS011;1513;47.650;10.720;2023-11-18T08:52:49;1.30;;;1.10;;
3006;SDS011;1513;47.650;10.720;2023-11-18T08:55:23;1.47;;;1.00;;
3006;SDS011;1513;47.650;10.720;2023-11-18T08:58:13;0.87;;;0.87;;
3006;SDS011;1513;47.650;10.720;2023-11-18T09:00:50;1.10;;;1.00;;
3006;SDS011;1513;47.650;10.720;2023-11-18T09:03:25;1.23;;;0.80;;
3006;SDS011;1513;47.650;10.720;2023-11-18T09:06:03;0.80;;;0.80;;
3006;SDS011;1513;47.650;10.720;2023-11-18T09:08:34;0.60;;;0.60;;
3006;SDS011;1513;47.650;10.720;2023-11-18T09:11:03;0.70;;;0.70;;
3006;SDS011;1513;47.650;10.720;2023-11-18T09:13:31;0.60;;;0.60;;
3006;SDS011;1513;47.650;10.720;2023-11-18T09:16:04;0.53;;;0.53;;
3006;SDS011;1513;47.650;10.720;2023-11-18T09:18:35;0.77;;;0.67;;
3006;SDS011;1513;47.650;10.720;2023-11-18T09:21:02;0.93;;;0.80;;
3006;SDS011;1513;47.650;10.720;2023-11-18T09:23:30;0.97;;;0.70;;
3006;SDS011;1513;47.650;10.720;2023-11-18T09:25:59;0.80;;;0.67;;
3006;SDS011;1513;47.650;10.720;2023-11-18T09:28:27;0.97;;;0.70;;
3006;SDS011;1513;47.650;10.720;2023-11-18T09:30:56;0.40;;;0.40;;
3006;SDS011;1513;47.650;10.720;2023-11-18T09:33:24;0.50;;;0.50;;
3006;SDS011;1513;47.650;10.720;2023-11-18T09:35:51;0.60;;;0.60;;
3006;SDS011;1513;47.650;10.720;2023-11-18T09:38:33;0.40;;;0.40;;
3006;SDS011;1513;47.650;10.720;2023-11-18T09:41:01;0.50;;;0.50;;
3006;SDS011;1513;47.650;10.720;2023-11-18T09:43:39;0.50;;;0.40;;
3006;SDS011;1513;47.650;10.720;2023-11-18T09:49:31;0.40;;;0.40;;
3006;SDS011;1513;47.650;10.720;2023-11-18T09:51:44;0.60;;;0.43;;
3006;SDS011;1513;47.650;10.720;2023-11-18T09:59:52;0.70;;;0.40;;
3006;SDS011;1513;47.650;10.720;2023-11-18T10:02:48;1.17;;;0.40;;
3006;SDS011;1513;47.650;10.720;2023-11-18T10:05:21;0.93;;;0.40;;
3006;SDS011;1513;47.650;10.720;2023-11-18T10:07:51;0.50;;;0.50;;
3006;SDS011;1513;47.650;10.720;2023-11-18T10:10:18;0.40;;;0.40;;
3006;SDS011;1513;47.650;10.720;2023-11-18T10:12:50;0.63;;;0.40;;
3006;SDS011;1513;47.650;10.720;2023-11-18T10:15:23;0.40;;;0.40;;
3006;SDS011;1513;47.650;10.720;2023-11-18T10:17:51;0.50;;;0.50;;
3006;SDS011;1513;47.650;10.720;2023-11-18T10:20:45;1.90;;;0.50;;
3006;SDS011;1513;47.650;10.720;2023-11-18T10:23:12;0.80;;;0.50;;
3006;SDS011;1513;47.650;10.720;2023-11-18T10:25:51;0.53;;;0.40;;
3006;SDS011;1513;47.650;10.720;2023-11-18T10:30:55;0.40;;;0.40;;
3006;SDS011;1513;47.650;10.720;2023-11-18T10:33:26;0.40;;;0.40;;
3006;SDS011;1513;47.650;10.720;2023-11-18T10:35:56;0.50;;;0.40;;
3006;SDS011;1513;47.650;10.720;2023-11-18T10:38:23;1.70;;;0.47;;
3006;SDS011;1513;47.650;10.720;2023-11-18T10:40:53;0.70;;;0.50;;
3006;SDS011;1513;47.650;10.720;2023-11-18T10:43:23;2.47;;;0.80;;
3006;SDS011;1513;47.650;10.720;2023-11-18T10:45:51;1.13;;;0.50;;
3006;SDS011;1513;47.650;10.720;2023-11-18T10:48:18;0.50;;;0.47;;
3006;SDS011;1513;47.650;10.720;2023-11-18T10:50:46;0.40;;;0.40;;
3006;SDS011;1513;47.650;10.720;2023-11-18T10:53:16;0.53;;;0.53;;
3006;SDS011;1513;47.650;10.720;2023-11-18T10:55:44;0.60;;;0.50;;
3006;SDS011;1513;47.650;10.720;2023-11-18T10:58:11;0.70;;;0.50;;
3006;SDS011;1513;47.650;10.720;2023-11-18T11:00:46;0.67;;;0.63;;
3006;SDS011;1513;47.650;10.720;2023-11-18T11:03:18;0.70;;;0.60;;
3006;SDS011;1513;47.650;10.720;2023-11-18T11:05:45;0.97;;;0.87;;
3006;SDS011;1513;47.650;10.720;2023-11-18T11:08:13;0.50;;;0.50;;
3006;SDS011;1513;47.650;10.720;2023-11-18T11:10:41;0.60;;;0.60;;
3006;SDS011;1513;47.650;10.720;2023-11-18T11:13:09;0.70;;;0.70;;
3006;SDS011;1513;47.650;10.720;2023-11-18T11:15:39;0.90;;;0.80;;
3006;SDS011;1513;47.650;10.720;2023-11-18T11:18:13;1.00;;;0.63;;
3006;SDS011;1513;47.650;10.720;2023-11-18T11:26:28;0.50;;;0.50;;
3006;SDS011;1513;47.650;10.720;2023-11-18T11:29:25;0.47;;;0.47;;
3006;SDS011;1513;47.650;10.720;2023-11-18T11:32:22;1.80;;;0.40;;
3006;SDS011;1513;47.650;10.720;2023-11-18T11:35:03;0.53;;;0.37;;
3006;SDS011;1513;47.650;10.720;2023-11-18T11:37:42;1.17;;;0.70;;
3006;SDS011;1513;47.650;10.720;2023-11-18T11:40:10;0.43;;;0.40;;
3006;SDS011;1513;47.650;10.720;2023-11-18T11:42:41;0.50;;;0.43;;
3006;SDS011;1513;47.650;10.720;2023-11-18T11:45:08;0.50;;;0.50;;
3006;SDS011;1513;47.650;10.720;2023-11-18T11:47:50;0.40;;;0.40;;
3006;SDS011;1513;47.650;10.720;2023-11-18T11:50:26;0.50;;;0.50;;
3006;SDS011;1513;47.650;10.720;2023-11-18T11:53:02;0.40;;;0.37;;
3006;SDS011;1513;47.650;10.720;2023-11-18T11:55:52;0.40;;;0.40;;
3006;SDS011;1513;47.650;10.720;2023-11-18T11:58:26;0.43;;;0.40;;
3006;SDS011;1513;47.650;10.720;2023-11-18T12:00:52;0.40;;;0.40;;
3006;SDS011;1513;47.650;10.720;2023-11-18T12:03:22;0.50;;;0.50;;
3006;SDS011;1513;47.650;10.720;2023-11-18T12:05:49;0.43;;;0.43;;
3006;SDS011;1513;47.650;10.720;2023-11-18T12:08:21;0.60;;;0.50;;
3006;SDS011;1513;47.650;10.720;2023-11-18T12:10:51;0.70;;;0.50;;
3006;SDS011;1513;47.650;10.720;2023-11-18T12:13:19;0.60;;;0.57;;
3006;SDS011;1513;47.650;10.720;2023-11-18T12:15:55;2.53;;;0.50;;
3006;SDS011;1513;47.650;10.720;2023-11-18T12:18:31;0.60;;;0.50;;
3006;SDS011;1513;47.650;10.720;2023-11-18T12:20:59;0.60;;;0.60;;
3006;SDS011;1513;47.650;10.720;2023-11-18T12:23:29;0.70;;;0.70;;
3006;SDS011;1513;47.650;10.720;2023-11-18T12:25:56;1.10;;;1.00;;
3006;SDS011;1513;47.650;10.720;2023-11-18T12:30:59;0.77;;;0.77;;
3006;SDS011;1513;47.650;10.720;2023-11-18T12:36:33;1.70;;;0.87;;
3006;SDS011;1513;47.650;10.720;2023-11-18T12:42:08;0.77;;;0.77;;
3006;SDS011;1513;47.650;10.720;2023-11-18T12:44:51;1.10;;;0.60;;
3006;SDS011;1513;47.650;10.720;2023-11-18T12:47:31;2.80;;;0.90;;
3006;SDS011;1513;47.650;10.720;2023-11-18T12:50:00;0.50;;;0.50;;
3006;SDS011;1513;47.650;10.720;2023-11-18T12:52:28;0.67;;;0.67;;
3006;SDS011;1513;47.650;10.720;2023-11-18T12:54:54;0.90;;;0.70;;
3006;SDS011;1513;47.650;10.720;2023-11-18T12:57:27;1.17;;;0.97;;
3006;SDS011;1513;47.650;10.720;2023-11-18T12:59:56;0.60;;;0.60;;
3006;SDS011;1513;47.650;10.720;2023-11-18T13:02:23;0.90;;;0.90;;
3006;SDS011;1513;47.650;10.720;2023-11-18T13:04:50;1.50;;;1.40;;
3006;SDS011;1513;47.650;10.720;2023-11-18T13:07:21;0.73;;;0.73;;
3006;SDS011;1513;47.650;10.720;2023-11-18T13:09:47;0.60;;;0.57;;
3006;SDS011;1513;47.650;10.720;2023-11-18T13:12:15;0.50;;;0.50;;
3006;SDS011;1513;47.650;10.720;2023-11-18T13:14:42;0.70;;;0.70;;
3006;SDS011;1513;47.650;10.720;2023-11-18T13:17:11;1.33;;;1.07;;
3006;SDS011;1513;47.650;10.720;2023-11-18T13:19:42;4.27;;;3.70;;
3006;SDS011;1513;47.650;10.720;2023-11-18T13:22:09;1.53;;;1.10;;
3006;SDS011;1513;47.650;10.720;2023-11-18T13:24:38;1.83;;;0.70;;
3006;SDS011;1513;47.650;10.720;2023-11-18T13:27:13;2.33;;;2.13;;
3006;SDS011;1513;47.650;10.720;2023-11-18T13:29:45;1.87;;;1.77;;
3006;SDS011;1513;47.650;10.720;2023-11-18T13:32:14;1.80;;;1.70;;
3006;SDS011;1513;47.650;10.720;2023-11-18T13:34:41;1.80;;;1.70;;
3006;SDS011;1513;47.650;10.720;2023-11-18T13:37:08;0.93;;;0.90;;
3006;SDS011;1513;47.650;10.720;2023-11-18T13:39:56;1.37;;;1.27;;
3006;SDS011;1513;47.650;10.720;2023-11-18T13:42:26;1.60;;;1.50;;
3006;SDS011;1513;47.650;10.720;2023-11-18T13:44:53;0.90;;;0.90;;
3006;SDS011;1513;47.650;10.720;2023-11-18T13:47:28;2.00;;;1.90;;
3006;SDS011;1513;47.650;10.720;2023-11-18T13:49:54;1.47;;;1.00;;
3006;SDS011;1513;47.650;10.720;2023-11-18T13:52:23;1.20;;;0.83;;
3006;SDS011;1513;47.650;10.720;2023-11-18T13:54:51;0.60;;;0.60;;
3006;SDS011;1513;47.650;10.720;2023-11-18T13:57:22;0.67;;;0.67;;
3006;SDS011;1513;47.650;10.720;2023-11-18T13:59:52;0.70;;;0.70;;
3006;SDS011;1513;47.650;10.720;2023-11-18T14:02:19;0.77;;;0.77;;
3006;SDS011;1513;47.650;10.720;2023-11-18T14:04:49;0.77;;;0.67;;
3006;SDS011;1513;47.650;10.720;2023-11-18T14:07:16;0.87;;;0.83;;
3006;SDS011;1513;47.650;10.720;2023-11-18T14:09:45;0.67;;;0.57;;
3006;SDS011;1513;47.650;10.720;2023-11-18T14:12:12;1.10;;;0.80;;
3006;SDS011;1513;47.650;10.720;2023-11-18T14:14:39;1.23;;;1.13;;
3006;SDS011;1513;47.650;10.720;2023-11-18T14:17:05;0.70;;;0.70;;
3006;SDS011;1513;47.650;10.720;2023-11-18T14:19:35;0.70;;;0.70;;
3006;SDS011;1513;47.650;10.720;2023-11-18T14:22:03;0.80;;;0.63;;
3006;SDS011;1513;47.650;10.720;2023-11-18T14:24:32;1.93;;;0.70;;
3006;SDS011;1513;47.650;10.720;2023-11-18T14:26:59;2.60;;;1.20;;
3006;SDS011;1513;47.650;10.720;2023-11-18T14:29:25;0.80;;;0.80;;
3006;SDS011;1513;47.650;10.720;2023-11-18T14:31:53;0.80;;;0.80;;
3006;SDS011;1513;47.650;10.720;2023-11-18T14:34:19;1.17;;;0.73;;
3006;SDS011;1513;47.650;10.720;2023-11-18T14:36:46;0.90;;;0.80;;
3006;SDS011;1513;47.650;10.720;2023-11-18T14:39:12;1.10;;;1.10;;
3006;SDS011;1513;47.650;10.720;2023-11-18T14:41:39;2.13;;;1.67;;
3006;SDS011;1513;47.650;10.720;2023-11-18T14:44:06;2.90;;;2.27;;
3006;SDS011;1513;47.650;10.720;2023-11-18T14:46:35;2.80;;;2.60;;
3006;SDS011;1513;47.650;10.720;2023-11-18T14:49:06;3.40;;;2.10;;
3006;SDS011;1513;47.650;10.720;2023-11-18T14:51:32;3.43;;;2.10;;
3006;SDS011;1513;47.650;10.720;2023-11-18T14:53:59;4.03;;;3.00;;
3006;SDS011;1513;47.650;10.720;2023-11-18T14:56:26;7.33;;;4.40;;
3006;SDS011;1513;47.650;10.720;2023-11-18T14:58:53;4.43;;;3.07;;
3006;SDS011;1513;47.650;10.720;2023-11-18T15:01:19;3.90;;;2.60;;
3006;SDS011;1513;47.650;10.720;2023-11-18T15:03:45;4.60;;;2.73;;
3006;SDS011;1513;47.650;10.720;2023-11-18T15:06:12;1.73;;;1.50;;
3006;SDS011;1513;47.650;10.720;2023-11-18T15:08:38;3.03;;;2.30;;
3006;SDS011;1513;47.650;10.720;2023-11-18T15:11:08;1.57;;;1.47;;
3006;SDS011;1513;47.650;10.720;2023-11-18T15:13:34;1.27;;;1.17;;
3006;SDS011;1513;47.650;10.720;2023-11-18T15:16:02;4.00;;;1.80;;
3006;SDS011;1513;47.650;10.720;2023-11-18T15:18:29;7.10;;;4.40;;
3006;SDS011;1513;47.650;10.720;2023-11-18T15:20:55;6.53;;;4.10;;
3006;SDS011;1513;47.650;10.720;2023-11-18T15:23:22;2.40;;;1.60;;
3006;SDS011;1513;47.650;10.720;2023-11-18T15:25:48;3.13;;;1.97;;
3006;SDS011;1513;47.650;10.720;2023-11-18T15:28:17;2.60;;;2.40;;
3006;SDS011;1513;47.650;10.720;2023-11-18T15:30:44;2.90;;;2.60;;
3006;SDS011;1513;47.650;10.720;2023-11-18T15:33:10;1.37;;;1.27;;
3006;SDS011;1513;47.650;10.720;2023-11-18T15:35:39;13.40;;;6.30;;
3006;SDS011;1513;47.650;10.720;2023-11-18T15:38:08;17.13;;;8.00;;
3006;SDS011;1513;47.650;10.720;2023-11-18T15:40:41;5.83;;;3.47;;